Conway, SC

6:37 PM EDT on August 21, 2014 (GMT -0400)
Conway-Horry County | Change Station
CLOSE
Current Station
Airport
Location: Conway,
Elevation: 33 ft
Nearby Weather Stations

Elev 33 ft 33.83 °N, 79.12 °W | Updated 2 minutes ago

Clear
Clear
86 °F
Feels Like 95 °F
N
0
Wind Variable Wind from North

Today
High -- | Low -- °F
--% Chance of Precip.
Yesterday
High -- | Low -- °F
Precip. -- in
6:42 AM 7:56 PM
Waning Crescent, 12% visible
Pressure 30.03 in
Visibility 7.0 miles
Clouds Clear
Heat Index 95 °F
Dew Point 75 °F
Humidity 70%
Rainfall 0.00 in
Snow Depth Not available.
UV 1 out of 12
Pollen 7.60 out of 12
Air Quality Not available.
Flu Activity Not available.
METAR KHYW 212235Z AUTO 00000KT 7SM CLR 30/24 A3003 RMK AO2

More Conditions Fewer Conditions

Pressure 30.03 in
Visibility 7.0 miles
Clouds Clear
Heat Index 95 °F
Dew Point 75 °F
Humidity 70%
Rainfall 0.00 in
Snow Depth Not available.
UV 1 out of 12
Pollen 7.60 out of 12
Air Quality Not available.
Flu Activity Not available.
METAR KHYW 212235Z AUTO 00000KT 7SM CLR 30/24 A3003 RMK AO2

More Conditions Fewer Conditions

10-Day Weather Forecast

Almanac

Astronomy

Aug. 21, 2014 Rise Set
Actual Time 6:42 AM EDT 7:56 PM EDT
Civil Twilight 6:16 AM EDT 8:22 PM EDT
Nautical Twilight 5:45 AM EDT 8:52 PM EDT
Astronomical Twilight 5:13 AM EDT 9:25 PM EDT
Moon 3:15 AM EDT 5:19 PM EDT
Length of Visible Light 14h 05m
Length of Day
13h 13m
Tomorrow will be 1m 55s shorter.
Waning Crescent, 12% of the Moon is Illuminated
Today
Waning Crescent
Aug 25
New
Sep 2
First Quarter
Sep 8
Full
Sep 15
Last Quarter

Today's Extremes

State Highs State Lows

Community

WunderPhotos

Upload Photos

1,746,041 photos uploaded!

WunderBlogs® & News

Nearby

Snow Depth

Station Depth Elevation
No new snow has been reported.

Earthquake Activity

City Distance Mag. Time & Date
No recent earthquake activity has been reported nearby.
Minimum magnitude displayed is 2.5.

Coastal Water Temperatures

Place Temperature
Springmaid Pier, SC 84.0 °F

Nearby Weather Stations